createdAt,value
2022-11-20T00:00:16.589Z,-5.60
2022-11-20T00:02:43.133Z,-5.60
2022-11-20T00:05:09.732Z,-5.60
2022-11-20T00:07:36.370Z,-5.70
2022-11-20T00:10:02.984Z,-5.70
2022-11-20T00:12:29.566Z,-5.70
2022-11-20T00:14:56.089Z,-5.70
2022-11-20T00:17:22.633Z,-5.70
2022-11-20T00:19:49.170Z,-5.70
2022-11-20T00:22:15.729Z,-5.70
2022-11-20T00:24:43.249Z,-5.70
2022-11-20T00:27:09.970Z,-5.70
2022-11-20T00:29:36.511Z,-5.80
2022-11-20T00:32:03.114Z,-5.70
2022-11-20T00:34:29.647Z,-5.70
2022-11-20T00:36:56.196Z,-5.70
2022-11-20T00:39:23.426Z,-5.80
2022-11-20T00:41:51.039Z,-5.80
2022-11-20T00:44:17.606Z,-5.90
2022-11-20T00:46:44.160Z,-5.80
2022-11-20T00:49:10.699Z,-5.90
2022-11-20T00:51:37.246Z,-5.90
2022-11-20T00:54:03.850Z,-5.90
2022-11-20T00:56:30.489Z,-5.90
2022-11-20T00:58:59.541Z,-5.90
2022-11-20T01:01:26.442Z,-5.90
2022-11-20T01:03:53.571Z,-5.80
2022-11-20T01:06:29.572Z,-5.80
2022-11-20T01:08:56.888Z,-5.90
2022-11-20T01:11:24.354Z,-5.90
2022-11-20T01:13:51.146Z,-6.00
2022-11-20T01:16:21.285Z,-6.00
2022-11-20T01:18:48.739Z,-6.00
2022-11-20T01:21:25.226Z,-6.00
2022-11-20T01:23:51.804Z,-6.00
2022-11-20T01:26:22.366Z,-6.00
2022-11-20T01:28:48.927Z,-6.00
2022-11-20T01:31:19.395Z,-6.00
2022-11-20T01:33:46.350Z,-6.00
2022-11-20T01:36:13.011Z,-6.00
2022-11-20T01:38:39.559Z,-5.90
2022-11-20T01:41:06.334Z,-6.00
2022-11-20T01:43:32.982Z,-6.00
2022-11-20T01:46:16.263Z,-6.00
2022-11-20T01:48:48.968Z,-6.10
2022-11-20T01:51:34.237Z,-6.10
2022-11-20T01:54:01.515Z,-6.00
2022-11-20T01:56:28.060Z,-6.00
2022-11-20T01:58:55.203Z,-6.00
2022-11-20T02:01:21.988Z,-6.00
2022-11-20T02:03:48.806Z,-6.10
2022-11-20T02:06:17.403Z,-6.10
2022-11-20T02:08:44.000Z,-6.10
2022-11-20T02:11:10.791Z,-6.10
2022-11-20T02:13:46.367Z,-6.10
2022-11-20T02:16:33.190Z,-6.10
2022-11-20T02:19:00.306Z,-6.10
2022-11-20T02:21:48.380Z,-6.20
2022-11-20T02:24:15.265Z,-6.20
2022-11-20T02:26:54.808Z,-6.20
2022-11-20T02:29:25.971Z,-6.20
2022-11-20T02:31:52.510Z,-6.20
2022-11-20T02:34:19.051Z,-6.30
2022-11-20T02:36:45.620Z,-6.30
2022-11-20T02:39:13.074Z,-6.30
2022-11-20T02:41:40.122Z,-6.30
2022-11-20T02:44:06.786Z,-6.30
2022-11-20T02:46:33.727Z,-6.30
2022-11-20T02:49:01.224Z,-6.30
2022-11-20T02:51:27.753Z,-6.40
2022-11-20T02:53:54.302Z,-6.40
2022-11-20T02:56:20.840Z,-6.40
2022-11-20T02:58:47.407Z,-6.40
2022-11-20T03:01:13.987Z,-6.40
2022-11-20T03:03:40.621Z,-6.40
2022-11-20T03:06:07.225Z,-6.40
2022-11-20T03:08:33.775Z,-6.50
2022-11-20T03:11:07.545Z,-6.40
2022-11-20T03:13:34.383Z,-6.40
2022-11-20T03:16:13.672Z,-6.40
2022-11-20T03:18:40.855Z,-6.50
2022-11-20T03:21:07.511Z,-6.50
2022-11-20T03:23:34.124Z,-6.50
2022-11-20T03:26:10.566Z,-6.40
2022-11-20T03:28:37.367Z,-6.40
2022-11-20T03:31:10.601Z,-6.30
2022-11-20T03:33:37.223Z,-6.20
2022-11-20T03:36:07.530Z,-6.10
2022-11-20T03:38:34.116Z,-5.90
2022-11-20T03:41:01.684Z,-5.80
2022-11-20T03:43:28.896Z,-5.60
2022-11-20T03:45:55.462Z,-5.50
2022-11-20T03:48:22.016Z,-5.50
2022-11-20T03:50:48.659Z,-5.40
2022-11-20T03:53:15.714Z,-5.30
2022-11-20T03:55:42.268Z,-5.30
2022-11-20T03:58:09.077Z,-5.40
2022-11-20T04:00:35.612Z,-5.40
2022-11-20T04:03:02.509Z,-5.40
2022-11-20T04:05:29.126Z,-5.40
2022-11-20T04:07:55.674Z,-5.40
2022-11-20T04:10:22.208Z,-5.40
2022-11-20T04:12:48.782Z,-5.40
2022-11-20T04:15:15.349Z,-5.50
2022-11-20T04:17:41.947Z,-5.50
2022-11-20T04:20:08.726Z,-5.60
2022-11-20T04:22:35.276Z,-5.60
2022-11-20T04:25:01.815Z,-5.60
2022-11-20T04:27:28.367Z,-5.50
2022-11-20T04:29:54.908Z,-5.40
2022-11-20T04:32:23.203Z,-5.30
2022-11-20T04:34:49.739Z,-5.20
2022-11-20T04:37:16.315Z,-5.20
2022-11-20T04:39:42.889Z,-5.10
2022-11-20T04:42:28.732Z,-5.10
2022-11-20T04:44:55.435Z,-5.10
2022-11-20T04:47:22.038Z,-5.20
2022-11-20T04:49:48.584Z,-5.10
2022-11-20T04:52:15.204Z,-5.10
2022-11-20T04:54:41.761Z,-5.20
2022-11-20T04:57:14.147Z,-5.20
2022-11-20T04:59:41.079Z,-5.20
2022-11-20T05:02:07.913Z,-5.20
2022-11-20T05:04:34.511Z,-5.20
2022-11-20T05:07:01.092Z,-5.20
2022-11-20T05:09:27.691Z,-5.20
2022-11-20T05:11:54.258Z,-5.20
2022-11-20T05:14:20.803Z,-5.20
2022-11-20T05:16:47.402Z,-5.30
2022-11-20T05:19:13.985Z,-5.30
2022-11-20T05:21:40.519Z,-5.40
2022-11-20T05:24:07.946Z,-5.50
2022-11-20T05:26:34.502Z,-5.60
2022-11-20T05:29:01.047Z,-5.70
2022-11-20T05:31:28.453Z,-5.80
2022-11-20T05:33:55.377Z,-5.70
2022-11-20T05:36:21.916Z,-5.70
2022-11-20T05:38:50.838Z,-5.60
2022-11-20T05:41:18.751Z,-5.50
2022-11-20T05:43:45.735Z,-5.50
2022-11-20T05:46:13.532Z,-5.40
2022-11-20T05:48:40.354Z,-5.30
2022-11-20T05:51:07.242Z,-5.30
2022-11-20T05:53:34.418Z,-5.30
2022-11-20T05:56:11.624Z,-5.30
2022-11-20T05:58:38.231Z,-5.30
2022-11-20T06:01:08.555Z,-5.30
2022-11-20T06:03:35.191Z,-5.20
2022-11-20T06:06:01.802Z,-5.10
2022-11-20T06:08:28.544Z,-5.10
2022-11-20T06:10:55.223Z,-4.90
2022-11-20T06:13:21.775Z,-4.80
2022-11-20T06:15:51.567Z,-4.70
2022-11-20T06:18:18.212Z,-4.60
2022-11-20T06:20:44.802Z,-4.50
2022-11-20T06:23:11.347Z,-4.50
2022-11-20T06:25:38.726Z,-4.50
2022-11-20T06:28:05.281Z,-4.50
2022-11-20T06:30:31.828Z,-4.50
2022-11-20T06:32:58.365Z,-4.50
2022-11-20T06:35:24.937Z,-4.50
2022-11-20T06:37:51.476Z,-4.50
2022-11-20T06:40:18.022Z,-4.50
2022-11-20T06:42:44.581Z,-4.60
2022-11-20T06:45:11.136Z,-4.50
2022-11-20T06:47:37.676Z,-4.50
2022-11-20T06:50:04.337Z,-4.50
2022-11-20T06:52:30.884Z,-4.50
2022-11-20T06:54:57.435Z,-4.60
2022-11-20T06:57:23.975Z,-4.50
2022-11-20T06:59:50.527Z,-4.50
2022-11-20T07:02:17.081Z,-4.50
2022-11-20T07:04:43.629Z,-4.50
2022-11-20T07:07:10.215Z,-4.50
2022-11-20T07:09:36.795Z,-4.40
2022-11-20T07:12:03.351Z,-4.40
2022-11-20T07:14:29.903Z,-4.40
2022-11-20T07:16:56.467Z,-4.40
2022-11-20T07:19:23.142Z,-4.40
2022-11-20T07:21:49.781Z,-4.40
2022-11-20T07:24:16.336Z,-4.40
2022-11-20T07:26:46.610Z,-4.30
2022-11-20T07:29:13.219Z,-4.30
2022-11-20T07:31:39.773Z,-4.30
2022-11-20T07:34:06.393Z,-4.20
2022-11-20T07:36:32.949Z,-4.10
2022-11-20T07:38:59.592Z,-3.90
2022-11-20T07:41:26.135Z,-3.80
2022-11-20T07:43:52.684Z,-3.80
2022-11-20T07:46:19.268Z,-3.80
2022-11-20T07:48:45.825Z,-3.80
2022-11-20T07:51:12.375Z,-3.70
2022-11-20T07:53:38.958Z,-3.60
2022-11-20T07:56:05.672Z,-3.50
2022-11-20T07:58:33.907Z,-3.30
2022-11-20T08:01:04.968Z,-3.20
2022-11-20T08:03:31.569Z,-3.20
2022-11-20T08:06:04.117Z,-3.20
2022-11-20T08:08:33.654Z,-3.10
2022-11-20T08:11:19.636Z,-3.10
2022-11-20T08:14:04.569Z,-3.10
2022-11-20T08:16:31.128Z,-3.20
2022-11-20T08:18:58.019Z,-3.20
2022-11-20T08:21:24.852Z,-3.30
2022-11-20T08:23:51.568Z,-3.20
2022-11-20T08:26:18.112Z,-3.30
2022-11-20T08:28:45.013Z,-3.30
2022-11-20T08:31:11.617Z,-3.30
2022-11-20T08:33:38.192Z,-3.30
2022-11-20T08:36:05.092Z,-3.30
2022-11-20T08:38:31.688Z,-3.20
2022-11-20T08:41:17.702Z,-3.10
2022-11-20T08:43:44.267Z,-3.10
2022-11-20T08:46:10.828Z,-3.00
2022-11-20T08:48:37.376Z,-2.90
2022-11-20T08:51:04.155Z,-2.80
2022-11-20T08:53:30.691Z,-2.80
2022-11-20T08:55:57.515Z,-2.90
2022-11-20T08:58:24.053Z,-3.00
2022-11-20T09:00:50.638Z,-3.10
2022-11-20T09:03:17.187Z,-3.00
2022-11-20T09:05:43.859Z,-2.90
2022-11-20T09:08:10.399Z,-2.80
2022-11-20T09:10:37.451Z,-2.60
2022-11-20T09:13:04.240Z,-2.40
2022-11-20T09:15:30.799Z,-2.30
2022-11-20T09:17:58.073Z,-2.20
2022-11-20T09:20:24.801Z,-2.00
2022-11-20T09:22:51.323Z,-2.00
2022-11-20T09:25:18.020Z,-2.00
2022-11-20T09:27:46.628Z,-2.00
2022-11-20T09:30:16.246Z,-1.90
2022-11-20T09:32:43.013Z,-1.80
2022-11-20T09:35:09.688Z,-1.90
2022-11-20T09:37:36.226Z,-1.80
2022-11-20T09:40:02.854Z,-1.80
2022-11-20T09:42:35.813Z,-1.70
2022-11-20T09:45:04.919Z,-1.70
2022-11-20T09:47:49.872Z,-1.70
2022-11-20T09:50:25.368Z,-1.60
2022-11-20T09:53:04.122Z,-1.70
2022-11-20T09:55:30.673Z,-1.60
2022-11-20T09:57:57.227Z,-1.40
2022-11-20T10:00:24.405Z,-1.50
2022-11-20T10:03:09.772Z,-1.40
2022-11-20T10:05:36.289Z,-1.30
2022-11-20T10:08:12.291Z,-1.40
2022-11-20T10:10:43.934Z,-1.50
2022-11-20T10:13:16.925Z,-1.60
2022-11-20T10:15:46.620Z,-1.60
2022-11-20T10:18:16.114Z,-1.40
2022-11-20T10:21:00.925Z,-1.40
2022-11-20T10:23:46.708Z,-1.30
2022-11-20T10:26:16.086Z,-1.20
2022-11-20T10:29:09.297Z,-1.20
2022-11-20T10:31:37.235Z,-1.10
2022-11-20T10:34:12.344Z,-1.10
2022-11-20T10:36:44.799Z,-1.00
2022-11-20T10:39:25.735Z,-0.80
2022-11-20T10:41:53.039Z,-0.80
2022-11-20T10:44:41.958Z,-0.80
2022-11-20T10:47:12.706Z,-0.60
2022-11-20T10:49:39.242Z,-0.80
2022-11-20T10:52:10.214Z,-0.70
2022-11-20T10:54:36.747Z,-0.50
2022-11-20T10:57:21.933Z,-0.50
2022-11-20T10:59:54.353Z,-0.70
2022-11-20T11:02:24.540Z,-0.70
2022-11-20T11:04:54.295Z,-0.50
2022-11-20T11:07:28.594Z,-0.30
2022-11-20T11:09:55.640Z,-0.20
2022-11-20T11:12:22.679Z,-0.10
2022-11-20T11:14:53.077Z,-0.30
2022-11-20T11:17:28.177Z,-0.30
2022-11-20T11:19:58.798Z,-0.40
2022-11-20T11:22:25.518Z,-0.40
2022-11-20T11:24:52.472Z,-0.30
2022-11-20T11:27:19.308Z,-0.30
2022-11-20T11:29:46.282Z,-0.30
2022-11-20T11:32:13.900Z,-0.40
2022-11-20T11:34:40.456Z,-0.80
2022-11-20T11:37:11.887Z,-0.90
2022-11-20T11:39:38.436Z,-0.80
2022-11-20T11:42:04.987Z,-0.90
2022-11-20T11:44:50.847Z,-0.70
2022-11-20T11:47:22.215Z,-0.60
2022-11-20T11:49:48.759Z,-0.70
2022-11-20T11:52:19.427Z,-0.80
2022-11-20T11:54:50.524Z,-0.80
2022-11-20T11:57:17.033Z,-0.90
2022-11-20T12:00:00.516Z,-0.90
2022-11-20T12:02:45.504Z,-0.80
2022-11-20T12:05:18.087Z,-0.80
2022-11-20T12:08:09.437Z,-0.80
2022-11-20T12:10:57.590Z,-0.80
2022-11-20T12:13:43.056Z,-0.50
2022-11-20T12:16:12.476Z,-0.10
2022-11-20T12:18:39.072Z,0.00
2022-11-20T12:21:25.879Z,0.20
2022-11-20T12:24:04.988Z,0.20
2022-11-20T12:26:44.492Z,0.40
2022-11-20T12:29:20.069Z,0.40
2022-11-20T12:31:52.452Z,0.50
2022-11-20T12:34:28.782Z,0.60
2022-11-20T12:37:10.520Z,0.60
2022-11-20T12:39:43.575Z,0.60
2022-11-20T12:42:41.055Z,0.50
2022-11-20T12:45:29.818Z,0.40
2022-11-20T12:48:02.378Z,0.50
2022-11-20T12:50:53.352Z,0.60
2022-11-20T12:53:30.286Z,0.70
2022-11-20T12:55:56.811Z,0.70
2022-11-20T12:58:23.311Z,0.70
2022-11-20T13:01:33.439Z,0.50
2022-11-20T13:04:02.507Z,0.10
2022-11-20T13:06:31.751Z,-0.10
2022-11-20T13:08:58.326Z,-0.30
2022-11-20T13:11:45.618Z,-0.30
2022-11-20T13:14:25.679Z,-0.30
2022-11-20T13:17:06.195Z,-0.20
2022-11-20T13:19:32.989Z,-0.10
2022-11-20T13:21:59.543Z,0.00
2022-11-20T13:24:30.937Z,-0.10
2022-11-20T13:27:18.876Z,-0.30
2022-11-20T13:29:47.182Z,-0.30
2022-11-20T13:32:17.659Z,-0.30
2022-11-20T13:34:54.477Z,-0.30
2022-11-20T13:37:39.251Z,-0.30
2022-11-20T13:40:20.694Z,-0.20
2022-11-20T13:42:52.533Z,-0.10
2022-11-20T13:45:26.334Z,0.20
2022-11-20T13:47:53.121Z,0.30
2022-11-20T13:50:19.792Z,0.40
2022-11-20T13:52:49.306Z,0.30
2022-11-20T13:55:22.173Z,0.10
2022-11-20T13:58:08.753Z,-0.10
2022-11-20T14:00:42.287Z,-0.30
2022-11-20T14:03:17.194Z,-0.50
2022-11-20T14:05:53.391Z,-0.70
2022-11-20T14:08:31.446Z,-0.80
2022-11-20T14:11:14.738Z,-0.80
2022-11-20T14:13:55.742Z,-0.80
2022-11-20T14:16:22.807Z,-0.80
2022-11-20T14:18:49.345Z,-0.80
2022-11-20T14:21:42.353Z,-0.80
2022-11-20T14:24:11.371Z,-0.80
2022-11-20T14:26:38.563Z,-0.90
2022-11-20T14:29:05.083Z,-1.00
2022-11-20T14:31:31.651Z,-1.10
2022-11-20T14:33:58.161Z,-1.10
2022-11-20T14:36:24.956Z,-1.10
2022-11-20T14:38:51.671Z,-1.00
2022-11-20T14:41:19.319Z,-1.00
2022-11-20T14:43:46.515Z,2.50
2022-11-20T14:46:13.122Z,5.20
2022-11-20T14:48:44.458Z,3.70
2022-11-20T14:51:12.130Z,2.20
2022-11-20T14:53:38.745Z,1.10
2022-11-20T14:56:07.649Z,0.40
2022-11-20T14:58:34.759Z,0.00
2022-11-20T15:01:02.064Z,-0.30
2022-11-20T15:03:35.478Z,-0.60
2022-11-20T15:06:02.051Z,-0.70
2022-11-20T15:08:28.680Z,-0.70
2022-11-20T15:10:55.325Z,-0.70
2022-11-20T15:13:32.189Z,-0.80
2022-11-20T15:15:59.345Z,-0.80
2022-11-20T15:18:37.687Z,-0.80
2022-11-20T15:21:04.632Z,-0.80
2022-11-20T15:23:31.175Z,-0.80
2022-11-20T15:25:57.722Z,-0.80
2022-11-20T15:28:28.534Z,-0.80
2022-11-20T15:30:56.697Z,-0.80
2022-11-20T15:33:23.335Z,-0.80
2022-11-20T15:35:49.891Z,-0.80
2022-11-20T15:38:16.442Z,-0.80
2022-11-20T15:40:43.003Z,-0.80
2022-11-20T15:43:13.344Z,-0.80
2022-11-20T15:45:47.295Z,-0.70
2022-11-20T15:48:32.490Z,-0.70
2022-11-20T15:51:00.762Z,-0.60
2022-11-20T15:53:27.347Z,-0.60
2022-11-20T15:55:54.023Z,-0.50
2022-11-20T15:58:20.591Z,-0.50
2022-11-20T16:00:47.156Z,-0.50
2022-11-20T16:03:14.066Z,-0.40
2022-11-20T16:05:40.948Z,-0.30
2022-11-20T16:08:11.571Z,-0.30
2022-11-20T16:10:38.691Z,-0.30
2022-11-20T16:13:24.000Z,-0.30
2022-11-20T16:15:54.137Z,-0.40
2022-11-20T16:18:21.318Z,-0.30
2022-11-20T16:20:52.399Z,-0.40
2022-11-20T16:23:19.062Z,-0.40
2022-11-20T16:25:45.671Z,-0.30
2022-11-20T16:28:16.114Z,-0.30
2022-11-20T16:30:45.798Z,-0.30
2022-11-20T16:33:13.248Z,-0.30
2022-11-20T16:35:39.852Z,-0.30
2022-11-20T16:38:06.416Z,-0.20
2022-11-20T16:40:32.968Z,-0.20
2022-11-20T16:43:03.030Z,-0.20
2022-11-20T16:45:33.712Z,-0.20
2022-11-20T16:48:00.619Z,-0.10
2022-11-20T16:50:27.194Z,-0.10
2022-11-20T16:52:53.744Z,-0.10
2022-11-20T16:55:20.271Z,-0.10
2022-11-20T16:57:46.837Z,-0.10
2022-11-20T17:00:13.790Z,-0.10
2022-11-20T17:02:40.351Z,-0.10
2022-11-20T17:05:07.013Z,-0.10
2022-11-20T17:07:33.923Z,0.00
2022-11-20T17:10:01.048Z,0.00
2022-11-20T17:12:27.684Z,0.10
2022-11-20T17:14:54.220Z,0.10
2022-11-20T17:17:20.772Z,0.10
2022-11-20T17:19:47.317Z,0.00
2022-11-20T17:22:13.901Z,0.00
2022-11-20T17:24:40.511Z,0.00
2022-11-20T17:27:07.299Z,0.00
2022-11-20T17:29:37.761Z,0.00
2022-11-20T17:32:07.285Z,0.10
2022-11-20T17:34:33.825Z,0.10
2022-11-20T17:37:00.412Z,0.00
2022-11-20T17:39:26.934Z,0.10
2022-11-20T17:42:22.458Z,0.10
2022-11-20T17:44:48.992Z,0.10
2022-11-20T17:47:16.230Z,0.10
2022-11-20T17:49:42.769Z,0.00
2022-11-20T17:52:09.358Z,0.10
2022-11-20T17:54:36.100Z,0.10
2022-11-20T17:57:21.192Z,0.10
2022-11-20T17:59:47.736Z,0.10
2022-11-20T18:02:14.359Z,0.10
2022-11-20T18:04:40.901Z,0.20
2022-11-20T18:07:07.504Z,0.20
2022-11-20T18:09:34.092Z,0.20
2022-11-20T18:12:00.645Z,0.20
2022-11-20T18:14:34.372Z,0.20
2022-11-20T18:17:08.091Z,0.20
2022-11-20T18:19:40.298Z,0.20
2022-11-20T18:22:12.192Z,0.20
2022-11-20T18:24:42.034Z,0.30
2022-11-20T18:27:09.597Z,0.30
2022-11-20T18:29:36.144Z,0.30
2022-11-20T18:32:02.862Z,0.30
2022-11-20T18:34:29.583Z,0.30
2022-11-20T18:36:56.175Z,0.30
2022-11-20T18:39:23.569Z,0.30
2022-11-20T18:42:08.525Z,0.30
2022-11-20T18:44:53.609Z,0.30
2022-11-20T18:47:23.027Z,0.30
2022-11-20T18:49:52.988Z,0.30
2022-11-20T18:52:20.542Z,0.30
2022-11-20T18:54:47.211Z,0.30
2022-11-20T18:57:15.518Z,0.30
2022-11-20T18:59:43.066Z,0.30
2022-11-20T19:02:11.295Z,0.30
2022-11-20T19:04:38.182Z,0.30
2022-11-20T19:07:05.006Z,0.30
2022-11-20T19:09:31.676Z,0.30
2022-11-20T19:11:58.228Z,0.40
2022-11-20T19:14:25.077Z,0.40
2022-11-20T19:16:51.672Z,0.40
2022-11-20T19:19:18.249Z,0.40
2022-11-20T19:21:44.815Z,0.40
2022-11-20T19:24:11.422Z,0.40
2022-11-20T19:26:38.064Z,0.40
2022-11-20T19:29:05.179Z,0.40
2022-11-20T19:31:31.769Z,0.40
2022-11-20T19:34:02.020Z,0.50
2022-11-20T19:36:29.626Z,10.00
2022-11-20T19:38:56.263Z,10.80
2022-11-20T19:41:31.496Z,7.30
2022-11-20T19:44:18.414Z,4.80
2022-11-20T19:46:45.007Z,3.30
2022-11-20T19:49:12.315Z,2.30
2022-11-20T19:51:39.323Z,1.80
2022-11-20T19:54:06.126Z,1.30
2022-11-20T19:56:33.011Z,1.10
2022-11-20T19:58:59.721Z,0.80
2022-11-20T20:01:27.351Z,0.70
2022-11-20T20:03:54.158Z,0.60
2022-11-20T20:06:21.540Z,0.60
2022-11-20T20:08:48.308Z,0.50
2022-11-20T20:11:16.089Z,0.50
2022-11-20T20:13:42.702Z,0.40
2022-11-20T20:16:09.758Z,0.40
2022-11-20T20:18:36.444Z,0.30
2022-11-20T20:21:03.969Z,0.40
2022-11-20T20:23:30.542Z,0.40
2022-11-20T20:25:57.084Z,0.40
2022-11-20T20:28:23.627Z,0.40
2022-11-20T20:30:50.164Z,0.40
2022-11-20T20:33:16.710Z,0.40
2022-11-20T20:35:43.272Z,0.40
2022-11-20T20:38:09.836Z,0.40
2022-11-20T20:40:36.442Z,0.50
2022-11-20T20:43:03.108Z,0.40
2022-11-20T20:45:29.650Z,0.40
2022-11-20T20:47:56.283Z,0.40
2022-11-20T20:50:22.824Z,0.50
2022-11-20T20:52:49.447Z,0.50
2022-11-20T20:55:16.027Z,0.50
2022-11-20T20:57:42.632Z,0.50
2022-11-20T21:00:10.220Z,0.60
2022-11-20T21:02:36.802Z,0.60
2022-11-20T21:05:03.759Z,0.60
2022-11-20T21:07:30.371Z,0.70
2022-11-20T21:09:56.942Z,0.70
2022-11-20T21:12:23.516Z,0.80
2022-11-20T21:14:50.045Z,0.80
2022-11-20T21:17:16.608Z,0.90
2022-11-20T21:19:43.238Z,0.90
2022-11-20T21:22:09.770Z,1.00
2022-11-20T21:24:36.453Z,1.00
2022-11-20T21:27:04.917Z,1.00
2022-11-20T21:29:31.524Z,1.00
2022-11-20T21:31:58.115Z,1.10
2022-11-20T21:34:25.141Z,1.00
2022-11-20T21:36:51.980Z,1.10
2022-11-20T21:39:20.344Z,1.10
2022-11-20T21:41:46.874Z,1.10
2022-11-20T21:44:30.614Z,1.10
2022-11-20T21:46:58.048Z,1.10
2022-11-20T21:49:24.806Z,1.10
2022-11-20T21:51:51.508Z,1.10
2022-11-20T21:54:18.067Z,1.10
2022-11-20T21:56:44.601Z,1.00
2022-11-20T21:59:12.172Z,1.10
2022-11-20T22:01:38.811Z,1.10
2022-11-20T22:04:07.653Z,1.20
2022-11-20T22:06:34.298Z,1.20
2022-11-20T22:09:01.219Z,1.20
2022-11-20T22:11:27.778Z,1.20
2022-11-20T22:14:13.319Z,1.20
2022-11-20T22:16:39.894Z,1.20
2022-11-20T22:19:06.458Z,1.20
2022-11-20T22:21:33.028Z,1.30
2022-11-20T22:23:59.583Z,1.40
2022-11-20T22:26:26.879Z,1.40
2022-11-20T22:28:54.218Z,1.40
2022-11-20T22:31:21.201Z,1.30
2022-11-20T22:33:47.764Z,1.30
2022-11-20T22:36:15.021Z,1.30
2022-11-20T22:38:41.618Z,1.20
2022-11-20T22:41:12.376Z,1.20
2022-11-20T22:43:39.267Z,1.20
2022-11-20T22:46:06.842Z,1.20
2022-11-20T22:48:33.850Z,1.20
2022-11-20T22:51:07.249Z,1.20
2022-11-20T22:53:34.100Z,1.20
2022-11-20T22:56:01.084Z,1.20
2022-11-20T22:58:30.852Z,1.20
2022-11-20T23:01:07.399Z,1.20
2022-11-20T23:03:34.114Z,1.20
2022-11-20T23:06:00.899Z,1.20
2022-11-20T23:08:27.494Z,1.20
2022-11-20T23:11:00.674Z,1.20
2022-11-20T23:13:27.369Z,1.20
2022-11-20T23:15:54.131Z,1.20
2022-11-20T23:18:20.684Z,1.20
2022-11-20T23:20:47.231Z,1.20
2022-11-20T23:23:13.811Z,1.10
2022-11-20T23:25:40.344Z,1.10
2022-11-20T23:28:06.898Z,1.20
2022-11-20T23:30:33.431Z,1.20
2022-11-20T23:32:59.992Z,1.10
2022-11-20T23:35:26.548Z,1.10
2022-11-20T23:37:53.107Z,1.20
2022-11-20T23:40:19.652Z,1.10
2022-11-20T23:43:04.915Z,1.10
2022-11-20T23:45:31.495Z,1.10
2022-11-20T23:47:58.074Z,1.10
2022-11-20T23:50:24.628Z,1.10
2022-11-20T23:52:51.153Z,1.10
2022-11-20T23:55:17.707Z,1.10
2022-11-20T23:57:44.287Z,1.10
